sensor_id;sensor_type;location;lat;lon;timestamp;pressure;altitude;pressure_sealevel;temperature;humidity
3796;BME280;1913;50.660;7.834;2023-06-04T00:00:23;151042.22;;;12.15;67.62
3796;BME280;1913;50.660;7.834;2023-06-04T00:02:48;151059.84;;;12.22;66.49
3796;BME280;1913;50.660;7.834;2023-06-04T00:05:14;151076.19;;;12.29;64.80
3796;BME280;1913;50.660;7.834;2023-06-04T00:07:40;151067.41;;;12.25;65.90
3796;BME280;1913;50.660;7.834;2023-06-04T00:10:05;151048.53;;;12.17;67.12
3796;BME280;1913;50.660;7.834;2023-06-04T00:12:31;151049.78;;;12.18;66.62
3796;BME280;1913;50.660;7.834;2023-06-04T00:14:56;151042.22;;;12.15;66.77
3796;BME280;1913;50.660;7.834;2023-06-04T00:17:22;151037.19;;;12.13;66.76
3796;BME280;1913;50.660;7.834;2023-06-04T00:19:47;151030.94;;;12.10;66.37
3796;BME280;1913;50.660;7.834;2023-06-04T00:22:13;151022.13;;;12.07;66.50
3796;BME280;1913;50.660;7.834;2023-06-04T00:24:38;151035.94;;;12.12;66.10
3796;BME280;1913;50.660;7.834;2023-06-04T00:27:07;151037.19;;;12.13;66.17
3796;BME280;1913;50.660;7.834;2023-06-04T00:29:32;151044.75;;;12.16;65.42
3796;BME280;1913;50.660;7.834;2023-06-04T00:31:58;151032.19;;;12.11;65.90
3796;BME280;1913;50.660;7.834;2023-06-04T00:34:23;151039.72;;;12.14;65.47
3796;BME280;1913;50.660;7.834;2023-06-04T00:36:49;151052.28;;;12.19;64.77
3796;BME280;1913;50.660;7.834;2023-06-04T00:39:14;151056.09;;;12.20;64.73
3796;BME280;1913;50.660;7.834;2023-06-04T00:41:39;151062.34;;;12.23;64.48
3796;BME280;1913;50.660;7.834;2023-06-04T00:44:05;151046.00;;;12.16;64.94
3796;BME280;1913;50.660;7.834;2023-06-04T00:46:32;151037.19;;;12.13;65.66
3796;BME280;1913;50.660;7.834;2023-06-04T00:48:57;151008.28;;;12.01;72.62
3796;BME280;1913;50.660;7.834;2023-06-04T00:51:23;150996.97;;;11.96;68.54
3796;BME280;1913;50.660;7.834;2023-06-04T00:53:49;150934.03;;;11.71;80.48
3796;BME280;1913;50.660;7.834;2023-06-04T00:56:15;150882.47;;;11.50;78.89
3796;BME280;1913;50.660;7.834;2023-06-04T00:58:41;150795.72;;;11.15;90.46
3796;BME280;1913;50.660;7.834;2023-06-04T01:01:15;150735.38;;;10.90;94.80
3796;BME280;1913;50.660;7.834;2023-06-04T01:03:45;150711.50;;;10.81;96.19
3796;BME280;1913;50.660;7.834;2023-06-04T01:06:20;150633.59;;;10.49;99.46
3796;BME280;1913;50.660;7.834;2023-06-04T01:08:51;150595.91;;;10.34;99.91
3796;BME280;1913;50.660;7.834;2023-06-04T01:11:30;150592.16;;;10.32;97.49
3796;BME280;1913;50.660;7.834;2023-06-04T01:13:55;150530.56;;;10.07;100.00
3796;BME280;1913;50.660;7.834;2023-06-04T01:16:21;150539.34;;;10.11;99.10
3796;BME280;1913;50.660;7.834;2023-06-04T01:18:47;150544.34;;;10.13;100.00
3796;BME280;1913;50.660;7.834;2023-06-04T01:21:13;150521.75;;;10.03;99.73
3796;BME280;1913;50.660;7.834;2023-06-04T01:23:49;150550.63;;;10.15;95.07
3796;BME280;1913;50.660;7.834;2023-06-04T01:26:30;150571.97;;;10.24;93.62
3796;BME280;1913;50.660;7.834;2023-06-04T01:28:57;150609.75;;;10.39;90.39
3796;BME280;1913;50.660;7.834;2023-06-04T01:31:23;150649.91;;;10.55;86.75
3796;BME280;1913;50.660;7.834;2023-06-04T01:33:53;150702.69;;;10.77;84.51
3796;BME280;1913;50.660;7.834;2023-06-04T01:36:19;150790.69;;;11.13;78.49
3796;BME280;1913;50.660;7.834;2023-06-04T01:38:45;150790.69;;;11.13;79.25
3796;BME280;1913;50.660;7.834;2023-06-04T01:41:11;150808.28;;;11.20;78.08
3796;BME280;1913;50.660;7.834;2023-06-04T01:43:36;150830.94;;;11.29;76.38
3796;BME280;1913;50.660;7.834;2023-06-04T01:46:03;150830.94;;;11.29;76.10
3796;BME280;1913;50.660;7.834;2023-06-04T01:48:28;150843.47;;;11.34;75.12
3796;BME280;1913;50.660;7.834;2023-06-04T01:50:54;150840.97;;;11.33;75.74
3796;BME280;1913;50.660;7.834;2023-06-04T01:53:20;150849.78;;;11.37;72.99
3796;BME280;1913;50.660;7.834;2023-06-04T01:55:46;150863.63;;;11.42;73.12
3796;BME280;1913;50.660;7.834;2023-06-04T01:58:15;150840.97;;;11.33;76.43
3796;BME280;1913;50.660;7.834;2023-06-04T02:00:43;150843.47;;;11.34;74.01
3796;BME280;1913;50.660;7.834;2023-06-04T02:03:08;150847.28;;;11.36;74.42
3796;BME280;1913;50.660;7.834;2023-06-04T02:05:36;150827.13;;;11.27;76.30
3796;BME280;1913;50.660;7.834;2023-06-04T02:08:02;150813.34;;;11.22;76.92
3796;BME280;1913;50.660;7.834;2023-06-04T02:10:30;150796.97;;;11.15;76.08
3796;BME280;1913;50.660;7.834;2023-06-04T02:12:57;150791.94;;;11.13;78.62
3796;BME280;1913;50.660;7.834;2023-06-04T02:15:24;150722.84;;;10.85;85.92
3796;BME280;1913;50.660;7.834;2023-06-04T02:17:50;150710.25;;;10.80;85.47
3796;BME280;1913;50.660;7.834;2023-06-04T02:20:16;150688.91;;;10.71;86.70
3796;BME280;1913;50.660;7.834;2023-06-04T02:22:42;150682.59;;;10.69;83.36
3796;BME280;1913;50.660;7.834;2023-06-04T02:25:08;150666.28;;;10.62;86.74
3796;BME280;1913;50.660;7.834;2023-06-04T02:27:37;150607.19;;;10.38;90.44
3796;BME280;1913;50.660;7.834;2023-06-04T02:30:03;150617.25;;;10.42;90.22
3796;BME280;1913;50.660;7.834;2023-06-04T02:32:29;150604.69;;;10.37;86.98
3796;BME280;1913;50.660;7.834;2023-06-04T02:34:55;150583.38;;;10.28;90.60
3796;BME280;1913;50.660;7.834;2023-06-04T02:37:21;150597.16;;;10.34;87.85
3796;BME280;1913;50.660;7.834;2023-06-04T02:39:47;150519.22;;;10.02;98.26
3796;BME280;1913;50.660;7.834;2023-06-04T02:42:13;150530.56;;;10.07;93.57
3796;BME280;1913;50.660;7.834;2023-06-04T02:44:39;150550.63;;;10.15;95.15
3796;BME280;1913;50.660;7.834;2023-06-04T02:47:04;150565.72;;;10.21;90.29
3796;BME280;1913;50.660;7.834;2023-06-04T02:49:30;150588.38;;;10.30;86.38
3796;BME280;1913;50.660;7.834;2023-06-04T02:51:56;150616.00;;;10.42;83.59
3796;BME280;1913;50.660;7.834;2023-06-04T02:54:21;150643.69;;;10.53;81.66
3796;BME280;1913;50.660;7.834;2023-06-04T02:56:46;150668.78;;;10.63;81.42
3796;BME280;1913;50.660;7.834;2023-06-04T02:59:14;150652.47;;;10.57;82.41
3796;BME280;1913;50.660;7.834;2023-06-04T03:01:39;150641.13;;;10.52;82.10
3796;BME280;1913;50.660;7.834;2023-06-04T03:04:05;150638.63;;;10.51;82.12
3796;BME280;1913;50.660;7.834;2023-06-04T03:06:35;150642.38;;;10.52;81.55
3796;BME280;1913;50.660;7.834;2023-06-04T03:09:03;150649.91;;;10.55;80.23
3796;BME280;1913;50.660;7.834;2023-06-04T03:11:29;150646.19;;;10.54;81.45
3796;BME280;1913;50.660;7.834;2023-06-04T03:13:54;150652.47;;;10.57;81.06
3796;BME280;1913;50.660;7.834;2023-06-04T03:16:20;150648.69;;;10.55;81.37
3796;BME280;1913;50.660;7.834;2023-06-04T03:18:46;150633.59;;;10.49;82.13
3796;BME280;1913;50.660;7.834;2023-06-04T03:21:11;150609.75;;;10.39;84.53
3796;BME280;1913;50.660;7.834;2023-06-04T03:23:37;150593.41;;;10.33;85.41
3796;BME280;1913;50.660;7.834;2023-06-04T03:26:04;150578.31;;;10.26;86.02
3796;BME280;1913;50.660;7.834;2023-06-04T03:28:31;150593.41;;;10.33;83.85
3796;BME280;1913;50.660;7.834;2023-06-04T03:30:57;150595.91;;;10.34;83.64
3796;BME280;1913;50.660;7.834;2023-06-04T03:33:23;150604.69;;;10.37;82.41
3796;BME280;1913;50.660;7.834;2023-06-04T03:35:50;150642.38;;;10.52;79.60
3796;BME280;1913;50.660;7.834;2023-06-04T03:38:15;150644.94;;;10.53;81.26
3796;BME280;1913;50.660;7.834;2023-06-04T03:40:41;150639.88;;;10.51;81.91
3796;BME280;1913;50.660;7.834;2023-06-04T03:43:06;150616.00;;;10.42;85.90
3796;BME280;1913;50.660;7.834;2023-06-04T03:45:32;150595.91;;;10.34;91.96
3796;BME280;1913;50.660;7.834;2023-06-04T03:47:57;150588.38;;;10.30;89.31
3796;BME280;1913;50.660;7.834;2023-06-04T03:50:23;150577.06;;;10.26;89.52
3796;BME280;1913;50.660;7.834;2023-06-04T03:52:49;150558.19;;;10.18;93.88
3796;BME280;1913;50.660;7.834;2023-06-04T03:55:14;150582.06;;;10.28;85.65
3796;BME280;1913;50.660;7.834;2023-06-04T03:57:40;150585.88;;;10.29;86.57
3796;BME280;1913;50.660;7.834;2023-06-04T04:00:07;150577.06;;;10.26;91.98
3796;BME280;1913;50.660;7.834;2023-06-04T04:02:34;150568.22;;;10.22;90.55
3796;BME280;1913;50.660;7.834;2023-06-04T04:04:59;150566.97;;;10.22;89.64
3796;BME280;1913;50.660;7.834;2023-06-04T04:07:25;150571.97;;;10.24;92.69
3796;BME280;1913;50.660;7.834;2023-06-04T04:09:51;150575.81;;;10.25;89.40
3796;BME280;1913;50.660;7.834;2023-06-04T04:12:17;150603.44;;;10.37;88.41
3796;BME280;1913;50.660;7.834;2023-06-04T04:14:43;150623.53;;;10.45;89.40
3796;BME280;1913;50.660;7.834;2023-06-04T04:17:08;150614.75;;;10.41;87.94
3796;BME280;1913;50.660;7.834;2023-06-04T04:19:34;150609.75;;;10.39;88.43
3796;BME280;1913;50.660;7.834;2023-06-04T04:21:59;150637.38;;;10.50;87.73
3796;BME280;1913;50.660;7.834;2023-06-04T04:24:26;150642.38;;;10.52;90.76
3796;BME280;1913;50.660;7.834;2023-06-04T04:26:52;150646.19;;;10.54;94.56
3796;BME280;1913;50.660;7.834;2023-06-04T04:29:21;150715.28;;;10.82;93.26
3796;BME280;1913;50.660;7.834;2023-06-04T04:31:51;150838.47;;;11.32;86.96
3796;BME280;1913;50.660;7.834;2023-06-04T04:34:17;151005.75;;;12.00;80.47
3796;BME280;1913;50.660;7.834;2023-06-04T04:36:45;151208.31;;;12.82;75.17
3796;BME280;1913;50.660;7.834;2023-06-04T04:39:23;151407.28;;;13.63;68.11
3796;BME280;1913;50.660;7.834;2023-06-04T04:41:50;151540.75;;;14.17;61.19
3796;BME280;1913;50.660;7.834;2023-06-04T04:44:15;151632.72;;;14.54;57.31
3796;BME280;1913;50.660;7.834;2023-06-04T04:46:41;151777.66;;;15.13;52.58
3796;BME280;1913;50.660;7.834;2023-06-04T04:49:06;151922.66;;;15.72;51.07
3796;BME280;1913;50.660;7.834;2023-06-04T04:51:32;152063.91;;;16.29;50.74
3796;BME280;1913;50.660;7.834;2023-06-04T04:53:58;152154.75;;;16.66;49.01
3796;BME280;1913;50.660;7.834;2023-06-04T04:56:26;152168.59;;;16.71;47.33
3796;BME280;1913;50.660;7.834;2023-06-04T04:58:53;152320.09;;;17.33;46.82
3796;BME280;1913;50.660;7.834;2023-06-04T05:01:18;152404.66;;;17.67;45.87
3796;BME280;1913;50.660;7.834;2023-06-04T05:03:44;152438.78;;;17.81;45.06
3796;BME280;1913;50.660;7.834;2023-06-04T05:06:10;152556.19;;;18.28;43.53
3796;BME280;1913;50.660;7.834;2023-06-04T05:08:36;152609.22;;;18.50;43.29
3796;BME280;1913;50.660;7.834;2023-06-04T05:11:01;152687.59;;;18.81;42.80
3796;BME280;1913;50.660;7.834;2023-06-04T05:13:27;152773.53;;;19.16;42.35
3796;BME280;1913;50.660;7.834;2023-06-04T05:15:52;152817.75;;;19.34;41.70
3796;BME280;1913;50.660;7.834;2023-06-04T05:18:18;152896.16;;;19.66;40.65
3796;BME280;1913;50.660;7.834;2023-06-04T05:20:47;152950.50;;;19.88;39.33
3796;BME280;1913;50.660;7.834;2023-06-04T05:23:13;153046.56;;;20.26;38.23
3796;BME280;1913;50.660;7.834;2023-06-04T05:25:39;153127.53;;;20.59;36.97
3796;BME280;1913;50.660;7.834;2023-06-04T05:28:06;153085.78;;;20.42;36.15
3796;BME280;1913;50.660;7.834;2023-06-04T05:30:32;153162.94;;;20.73;35.59
3796;BME280;1913;50.660;7.834;2023-06-04T05:32:59;153033.94;;;20.21;34.67
3796;BME280;1913;50.660;7.834;2023-06-04T05:35:24;153059.25;;;20.31;35.51
3796;BME280;1913;50.660;7.834;2023-06-04T05:37:50;152987.16;;;20.02;35.48
3796;BME280;1913;50.660;7.834;2023-06-04T05:40:20;153064.28;;;20.33;36.48
3796;BME280;1913;50.660;7.834;2023-06-04T05:42:46;152859.47;;;19.51;36.00
3796;BME280;1913;50.660;7.834;2023-06-04T05:45:12;152869.56;;;19.55;35.97
3796;BME280;1913;50.660;7.834;2023-06-04T05:47:40;152994.72;;;20.05;36.26
3796;BME280;1913;50.660;7.834;2023-06-04T05:50:05;152963.16;;;19.93;34.68
3796;BME280;1913;50.660;7.834;2023-06-04T05:52:32;152936.63;;;19.82;34.52
3796;BME280;1913;50.660;7.834;2023-06-04T05:54:58;153025.09;;;20.18;34.31
3796;BME280;1913;50.660;7.834;2023-06-04T05:57:23;153127.53;;;20.59;33.89
3796;BME280;1913;50.660;7.834;2023-06-04T05:59:49;153035.22;;;20.22;34.43
3796;BME280;1913;50.660;7.834;2023-06-04T06:02:14;153184.47;;;20.82;33.52
3796;BME280;1913;50.660;7.834;2023-06-04T06:04:40;153256.56;;;21.11;33.99
3796;BME280;1913;50.660;7.834;2023-06-04T06:07:06;153322.38;;;21.38;32.67
3796;BME280;1913;50.660;7.834;2023-06-04T06:09:31;153300.81;;;21.29;32.35
3796;BME280;1913;50.660;7.834;2023-06-04T06:11:57;153413.50;;;21.74;32.78
3796;BME280;1913;50.660;7.834;2023-06-04T06:14:23;153472.97;;;21.98;32.82
3796;BME280;1913;50.660;7.834;2023-06-04T06:16:48;153510.94;;;22.14;32.70
3796;BME280;1913;50.660;7.834;2023-06-04T06:19:14;153433.72;;;21.83;31.27
3796;BME280;1913;50.660;7.834;2023-06-04T06:21:39;153407.16;;;21.72;30.18
3796;BME280;1913;50.660;7.834;2023-06-04T06:24:05;153499.56;;;22.09;30.93
3796;BME280;1913;50.660;7.834;2023-06-04T06:26:31;153488.13;;;22.05;30.80
3796;BME280;1913;50.660;7.834;2023-06-04T06:28:57;153578.03;;;22.41;30.81
3796;BME280;1913;50.660;7.834;2023-06-04T06:31:22;153679.34;;;22.82;29.94
3796;BME280;1913;50.660;7.834;2023-06-04T06:33:49;153584.38;;;22.43;29.19
3796;BME280;1913;50.660;7.834;2023-06-04T06:36:14;153755.38;;;23.12;29.72
3796;BME280;1913;50.660;7.834;2023-06-04T06:38:44;153621.09;;;22.58;28.73
3796;BME280;1913;50.660;7.834;2023-06-04T06:41:10;153597.06;;;22.49;30.09
3796;BME280;1913;50.660;7.834;2023-06-04T06:43:36;153656.53;;;22.73;31.77
3796;BME280;1913;50.660;7.834;2023-06-04T06:46:01;153636.28;;;22.64;29.15
3796;BME280;1913;50.660;7.834;2023-06-04T06:48:27;153616.06;;;22.56;29.32
3796;BME280;1913;50.660;7.834;2023-06-04T06:50:54;153490.69;;;22.06;28.73
3796;BME280;1913;50.660;7.834;2023-06-04T06:53:19;153366.66;;;21.56;30.00
3796;BME280;1913;50.660;7.834;2023-06-04T06:55:44;153271.75;;;21.17;29.33
3796;BME280;1913;50.660;7.834;2023-06-04T06:58:10;153286.91;;;21.23;30.48
3796;BME280;1913;50.660;7.834;2023-06-04T07:00:35;153374.25;;;21.59;31.42
3796;BME280;1913;50.660;7.834;2023-06-04T07:03:00;153426.13;;;21.80;30.86
3796;BME280;1913;50.660;7.834;2023-06-04T07:05:26;153480.53;;;22.02;29.34
3796;BME280;1913;50.660;7.834;2023-06-04T07:07:51;153507.13;;;22.12;28.91
3796;BME280;1913;50.660;7.834;2023-06-04T07:10:17;153405.91;;;21.71;28.80
3796;BME280;1913;50.660;7.834;2023-06-04T07:12:42;153408.41;;;21.72;28.66
3796;BME280;1913;50.660;7.834;2023-06-04T07:15:08;153480.53;;;22.02;29.90
3796;BME280;1913;50.660;7.834;2023-06-04T07:17:34;153500.81;;;22.10;28.69
3796;BME280;1913;50.660;7.834;2023-06-04T07:19:59;153529.97;;;22.21;27.49
3796;BME280;1913;50.660;7.834;2023-06-04T07:22:25;153566.66;;;22.36;27.28
3796;BME280;1913;50.660;7.834;2023-06-04T07:24:51;153560.31;;;22.34;28.12
3796;BME280;1913;50.660;7.834;2023-06-04T07:27:16;153455.22;;;21.91;26.74
3796;BME280;1913;50.660;7.834;2023-06-04T07:29:45;153569.19;;;22.37;28.39
3796;BME280;1913;50.660;7.834;2023-06-04T07:32:13;153614.78;;;22.56;27.94
3796;BME280;1913;50.660;7.834;2023-06-04T07:34:38;153635.03;;;22.64;27.28
3796;BME280;1913;50.660;7.834;2023-06-04T07:37:04;153618.56;;;22.57;26.81
3796;BME280;1913;50.660;7.834;2023-06-04T07:39:30;153675.53;;;22.80;26.75
3796;BME280;1913;50.660;7.834;2023-06-04T07:41:56;153664.16;;;22.76;27.59
3796;BME280;1913;50.660;7.834;2023-06-04T07:44:21;153673.00;;;22.79;27.59
3796;BME280;1913;50.660;7.834;2023-06-04T07:46:47;153595.75;;;22.48;28.14
3796;BME280;1913;50.660;7.834;2023-06-04T07:49:13;153641.38;;;22.66;28.49
3796;BME280;1913;50.660;7.834;2023-06-04T07:51:38;153626.16;;;22.60;27.30
3796;BME280;1913;50.660;7.834;2023-06-04T07:54:04;153671.75;;;22.79;27.58
3796;BME280;1913;50.660;7.834;2023-06-04T07:56:29;153676.81;;;22.81;27.50
3796;BME280;1913;50.660;7.834;2023-06-04T07:58:55;153598.34;;;22.49;28.36
3796;BME280;1913;50.660;7.834;2023-06-04T08:01:21;153598.34;;;22.49;27.14
3796;BME280;1913;50.660;7.834;2023-06-04T08:03:47;153654.03;;;22.71;28.42
3796;BME280;1913;50.660;7.834;2023-06-04T08:06:12;153792.13;;;23.27;27.53
3796;BME280;1913;50.660;7.834;2023-06-04T08:08:43;153717.38;;;22.97;27.39
3796;BME280;1913;50.660;7.834;2023-06-04T08:11:14;153642.63;;;22.67;26.33
3796;BME280;1913;50.660;7.834;2023-06-04T08:13:40;153542.59;;;22.27;27.17
3796;BME280;1913;50.660;7.834;2023-06-04T08:16:06;153752.81;;;23.11;26.57
3796;BME280;1913;50.660;7.834;2023-06-04T08:18:31;153731.31;;;23.03;26.69
3796;BME280;1913;50.660;7.834;2023-06-04T08:20:56;153614.78;;;22.56;25.61
3796;BME280;1913;50.660;7.834;2023-06-04T08:23:22;153648.94;;;22.69;26.08
3796;BME280;1913;50.660;7.834;2023-06-04T08:25:47;153609.72;;;22.54;26.75
3796;BME280;1913;50.660;7.834;2023-06-04T08:28:14;153566.66;;;22.36;26.98
3796;BME280;1913;50.660;7.834;2023-06-04T08:30:41;153655.28;;;22.72;25.98
3796;BME280;1913;50.660;7.834;2023-06-04T08:33:07;153618.56;;;22.57;26.31
3796;BME280;1913;50.660;7.834;2023-06-04T08:35:32;153808.59;;;23.34;27.88
3796;BME280;1913;50.660;7.834;2023-06-04T08:37:57;153681.88;;;22.83;26.88
3796;BME280;1913;50.660;7.834;2023-06-04T08:40:24;153673.00;;;22.79;26.51
3796;BME280;1913;50.660;7.834;2023-06-04T08:42:51;153622.34;;;22.59;26.25
3796;BME280;1913;50.660;7.834;2023-06-04T08:45:17;153574.25;;;22.39;26.85
3796;BME280;1913;50.660;7.834;2023-06-04T08:47:50;153583.13;;;22.43;26.46
3796;BME280;1913;50.660;7.834;2023-06-04T08:50:21;153702.13;;;22.91;26.77
3796;BME280;1913;50.660;7.834;2023-06-04T08:52:50;153608.44;;;22.53;26.25
3796;BME280;1913;50.660;7.834;2023-06-04T08:55:17;153738.91;;;23.06;26.93
3796;BME280;1913;50.660;7.834;2023-06-04T08:57:45;153728.78;;;23.02;27.54
3796;BME280;1913;50.660;7.834;2023-06-04T09:00:12;153665.41;;;22.76;27.01
3796;BME280;1913;50.660;7.834;2023-06-04T09:02:38;153766.78;;;23.17;25.58
3796;BME280;1913;50.660;7.834;2023-06-04T09:05:05;153880.78;;;23.63;26.13
3796;BME280;1913;50.660;7.834;2023-06-04T09:07:35;153771.81;;;23.19;25.48
3796;BME280;1913;50.660;7.834;2023-06-04T09:10:01;153926.41;;;23.81;26.92
3796;BME280;1913;50.660;7.834;2023-06-04T09:12:28;153830.09;;;23.42;25.30
3796;BME280;1913;50.660;7.834;2023-06-04T09:14:54;153969.50;;;23.99;25.65
3796;BME280;1913;50.660;7.834;2023-06-04T09:17:24;154184.97;;;24.85;25.03
3796;BME280;1913;50.660;7.834;2023-06-04T09:19:50;154310.50;;;25.36;24.06
3796;BME280;1913;50.660;7.834;2023-06-04T09:22:16;154291.50;;;25.28;24.86
3796;BME280;1913;50.660;7.834;2023-06-04T09:24:46;154278.84;;;25.23;24.85
3796;BME280;1913;50.660;7.834;2023-06-04T09:27:14;154141.84;;;24.68;23.32
3796;BME280;1913;50.660;7.834;2023-06-04T09:29:48;154220.44;;;25.00;24.11
3796;BME280;1913;50.660;7.834;2023-06-04T09:32:23;154268.69;;;25.19;24.25
3796;BME280;1913;50.660;7.834;2023-06-04T09:34:48;154206.53;;;24.94;23.97
3796;BME280;1913;50.660;7.834;2023-06-04T09:37:15;154153.31;;;24.73;22.59
3796;BME280;1913;50.660;7.834;2023-06-04T09:39:44;154239.47;;;25.07;23.93
3796;BME280;1913;50.660;7.834;2023-06-04T09:42:18;154243.28;;;25.09;24.24
3796;BME280;1913;50.660;7.834;2023-06-04T09:44:44;154282.63;;;25.25;23.47
3796;BME280;1913;50.660;7.834;2023-06-04T09:47:12;154366.31;;;25.59;23.05
3796;BME280;1913;50.660;7.834;2023-06-04T09:49:42;154474.16;;;26.02;23.62
3796;BME280;1913;50.660;7.834;2023-06-04T09:52:08;154386.59;;;25.67;22.76
3796;BME280;1913;50.660;7.834;2023-06-04T09:54:37;154378.97;;;25.64;22.91
3796;BME280;1913;50.660;7.834;2023-06-04T09:57:05;154368.84;;;25.60;23.36
3796;BME280;1913;50.660;7.834;2023-06-04T09:59:38;154287.72;;;25.27;24.63
3796;BME280;1913;50.660;7.834;2023-06-04T10:02:06;154257.25;;;25.15;23.51
3796;BME280;1913;50.660;7.834;2023-06-04T10:04:34;154314.34;;;25.38;24.49
3796;BME280;1913;50.660;7.834;2023-06-04T10:07:04;154171.03;;;24.80;24.12
3796;BME280;1913;50.660;7.834;2023-06-04T10:09:30;154077.25;;;24.42;23.71
3796;BME280;1913;50.660;7.834;2023-06-04T10:11:57;154145.69;;;24.70;23.68
3796;BME280;1913;50.660;7.834;2023-06-04T10:14:29;154238.19;;;25.07;23.39
3796;BME280;1913;50.660;7.834;2023-06-04T10:16:57;154368.84;;;25.60;23.24
3796;BME280;1913;50.660;7.834;2023-06-04T10:19:24;154392.97;;;25.69;23.58
3796;BME280;1913;50.660;7.834;2023-06-04T10:21:52;154491.91;;;26.09;22.56
3796;BME280;1913;50.660;7.834;2023-06-04T10:24:19;154422.16;;;25.81;23.53
3796;BME280;1913;50.660;7.834;2023-06-04T10:26:47;154321.94;;;25.41;22.56
3796;BME280;1913;50.660;7.834;2023-06-04T10:29:12;154476.69;;;26.03;22.56
3796;BME280;1913;50.660;7.834;2023-06-04T10:31:39;154579.44;;;26.44;22.74
3796;BME280;1913;50.660;7.834;2023-06-04T10:34:06;154573.09;;;26.42;21.92
3796;BME280;1913;50.660;7.834;2023-06-04T10:36:42;154795.25;;;27.31;21.97
3796;BME280;1913;50.660;7.834;2023-06-04T10:39:07;154894.25;;;27.71;21.88
3796;BME280;1913;50.660;7.834;2023-06-04T10:41:33;154928.56;;;27.85;22.28
3796;BME280;1913;50.660;7.834;2023-06-04T10:44:01;154774.94;;;27.23;20.71
3796;BME280;1913;50.660;7.834;2023-06-04T10:46:37;154606.13;;;26.55;21.89
3796;BME280;1913;50.660;7.834;2023-06-04T10:49:05;154719.06;;;27.01;24.00
3796;BME280;1913;50.660;7.834;2023-06-04T10:51:32;154744.41;;;27.11;20.95
3796;BME280;1913;50.660;7.834;2023-06-04T10:53:59;154626.44;;;26.63;22.82
3796;BME280;1913;50.660;7.834;2023-06-04T10:56:29;154461.44;;;25.97;22.25
3796;BME280;1913;50.660;7.834;2023-06-04T10:58:57;154587.13;;;26.47;21.97
3796;BME280;1913;50.660;7.834;2023-06-04T11:01:27;154796.50;;;27.32;21.86
3796;BME280;1913;50.660;7.834;2023-06-04T11:03:53;154974.25;;;28.03;21.20
3796;BME280;1913;50.660;7.834;2023-06-04T11:06:19;155125.47;;;28.64;20.63
3796;BME280;1913;50.660;7.834;2023-06-04T11:08:48;155174.97;;;28.84;20.49
3796;BME280;1913;50.660;7.834;2023-06-04T11:11:15;155145.78;;;28.72;20.38
3796;BME280;1913;50.660;7.834;2023-06-04T11:13:41;154900.59;;;27.74;20.19
3796;BME280;1913;50.660;7.834;2023-06-04T11:16:18;154763.53;;;27.18;22.61
3796;BME280;1913;50.660;7.834;2023-06-04T11:18:54;154741.88;;;27.10;21.93
3796;BME280;1913;50.660;7.834;2023-06-04T11:21:20;154731.75;;;27.06;21.27
3796;BME280;1913;50.660;7.834;2023-06-04T11:23:45;154866.31;;;27.60;20.05
3796;BME280;1913;50.660;7.834;2023-06-04T11:26:11;154811.75;;;27.38;21.90
3796;BME280;1913;50.660;7.834;2023-06-04T11:28:36;154706.34;;;26.95;21.36
3796;BME280;1913;50.660;7.834;2023-06-04T11:31:02;154786.34;;;27.28;19.52
3796;BME280;1913;50.660;7.834;2023-06-04T11:33:29;154837.13;;;27.48;20.63
3796;BME280;1913;50.660;7.834;2023-06-04T11:35:55;154915.91;;;27.80;20.74
3796;BME280;1913;50.660;7.834;2023-06-04T11:38:20;154900.59;;;27.74;20.74
3796;BME280;1913;50.660;7.834;2023-06-04T11:40:58;154684.81;;;26.87;21.61
3796;BME280;1913;50.660;7.834;2023-06-04T11:43:25;154743.16;;;27.10;20.13
3796;BME280;1913;50.660;7.834;2023-06-04T11:45:52;154805.38;;;27.35;19.86
3796;BME280;1913;50.660;7.834;2023-06-04T11:48:18;154945.06;;;27.91;20.25
3796;BME280;1913;50.660;7.834;2023-06-04T11:50:43;154945.06;;;27.91;19.66
3796;BME280;1913;50.660;7.834;2023-06-04T11:53:09;155060.66;;;28.38;20.63
3796;BME280;1913;50.660;7.834;2023-06-04T11:55:35;155002.22;;;28.14;19.82
3796;BME280;1913;50.660;7.834;2023-06-04T11:58:00;154915.91;;;27.80;19.35
3796;BME280;1913;50.660;7.834;2023-06-04T12:00:26;154865.06;;;27.59;21.07
3796;BME280;1913;50.660;7.834;2023-06-04T12:02:55;154802.84;;;27.34;20.19
3796;BME280;1913;50.660;7.834;2023-06-04T12:05:23;154867.56;;;27.60;22.81
3796;BME280;1913;50.660;7.834;2023-06-04T12:07:51;154948.91;;;27.93;20.00
3796;BME280;1913;50.660;7.834;2023-06-04T12:10:18;154804.13;;;27.35;21.05
3796;BME280;1913;50.660;7.834;2023-06-04T12:12:44;154876.47;;;27.64;20.62
3796;BME280;1913;50.660;7.834;2023-06-04T12:15:10;154809.22;;;27.37;21.11
3796;BME280;1913;50.660;7.834;2023-06-04T12:17:36;154805.38;;;27.35;19.61
3796;BME280;1913;50.660;7.834;2023-06-04T12:20:02;154811.75;;;27.38;20.31
3796;BME280;1913;50.660;7.834;2023-06-04T12:22:30;154892.97;;;27.70;19.94
3796;BME280;1913;50.660;7.834;2023-06-04T12:24:56;154793.97;;;27.31;20.12
3796;BME280;1913;50.660;7.834;2023-06-04T12:27:24;154776.22;;;27.24;20.00
3796;BME280;1913;50.660;7.834;2023-06-04T12:29:57;154955.22;;;27.96;18.58
3796;BME280;1913;50.660;7.834;2023-06-04T12:32:23;155012.38;;;28.19;20.88
3796;BME280;1913;50.660;7.834;2023-06-04T12:34:49;154754.66;;;27.15;18.86
3796;BME280;1913;50.660;7.834;2023-06-04T12:37:14;154887.91;;;27.68;20.70
3796;BME280;1913;50.660;7.834;2023-06-04T12:39:40;154953.97;;;27.95;21.96
3796;BME280;1913;50.660;7.834;2023-06-04T12:42:06;154834.59;;;27.47;19.15
3796;BME280;1913;50.660;7.834;2023-06-04T12:44:35;154876.47;;;27.64;19.92
3796;BME280;1913;50.660;7.834;2023-06-04T12:47:00;154945.06;;;27.91;20.84
3796;BME280;1913;50.660;7.834;2023-06-04T12:49:26;154851.13;;;27.54;19.53
3796;BME280;1913;50.660;7.834;2023-06-04T12:51:51;154832.03;;;27.46;19.83
3796;BME280;1913;50.660;7.834;2023-06-04T12:54:17;154708.88;;;26.96;19.65
3796;BME280;1913;50.660;7.834;2023-06-04T12:56:44;154788.94;;;27.29;20.66
3796;BME280;1913;50.660;7.834;2023-06-04T12:59:09;154781.31;;;27.26;21.19
3796;BME280;1913;50.660;7.834;2023-06-04T13:01:35;154766.06;;;27.19;20.21
3796;BME280;1913;50.660;7.834;2023-06-04T13:04:03;154631.53;;;26.65;21.21
3796;BME280;1913;50.660;7.834;2023-06-04T13:06:28;154712.72;;;26.98;21.33